sensor_id;sensor_type;location;lat;lon;timestamp;temperature;humidity
32187;DHT22;18686;53.084;8.872;2022-07-23T00:01:39;15.60;99.90
32187;DHT22;18686;53.084;8.872;2022-07-23T00:04:08;15.60;99.90
32187;DHT22;18686;53.084;8.872;2022-07-23T00:06:36;15.50;99.90
32187;DHT22;18686;53.084;8.872;2022-07-23T00:09:04;15.50;99.90
32187;DHT22;18686;53.084;8.872;2022-07-23T00:11:32;15.40;99.90
32187;DHT22;18686;53.084;8.872;2022-07-23T00:14:12;15.40;99.90
32187;DHT22;18686;53.084;8.872;2022-07-23T00:16:40;15.30;99.90
32187;DHT22;18686;53.084;8.872;2022-07-23T00:19:08;15.20;99.90
32187;DHT22;18686;53.084;8.872;2022-07-23T00:21:36;15.10;99.90
32187;DHT22;18686;53.084;8.872;2022-07-23T00:24:05;15.00;99.90
32187;DHT22;18686;53.084;8.872;2022-07-23T00:26:34;14.90;99.90
32187;DHT22;18686;53.084;8.872;2022-07-23T00:29:02;14.80;99.90
32187;DHT22;18686;53.084;8.872;2022-07-23T00:31:32;14.70;99.90
32187;DHT22;18686;53.084;8.872;2022-07-23T00:34:00;14.60;99.90
32187;DHT22;18686;53.084;8.872;2022-07-23T00:36:30;14.50;99.90
32187;DHT22;18686;53.084;8.872;2022-07-23T00:38:59;14.40;99.90
32187;DHT22;18686;53.084;8.872;2022-07-23T00:41:27;14.40;99.90
32187;DHT22;18686;53.084;8.872;2022-07-23T00:44:10;14.30;99.90
32187;DHT22;18686;53.084;8.872;2022-07-23T00:46:47;14.30;99.90
32187;DHT22;18686;53.084;8.872;2022-07-23T00:49:16;14.30;99.90
32187;DHT22;18686;53.084;8.872;2022-07-23T00:51:44;14.20;99.90
32187;DHT22;18686;53.084;8.872;2022-07-23T00:54:13;14.20;99.90
32187;DHT22;18686;53.084;8.872;2022-07-23T00:56:41;14.10;99.90
32187;DHT22;18686;53.084;8.872;2022-07-23T00:59:10;14.10;99.90
32187;DHT22;18686;53.084;8.872;2022-07-23T01:01:39;14.00;99.90
32187;DHT22;18686;53.084;8.872;2022-07-23T01:04:09;14.00;99.90
32187;DHT22;18686;53.084;8.872;2022-07-23T01:06:38;13.90;99.90
32187;DHT22;18686;53.084;8.872;2022-07-23T01:09:07;13.90;99.90
32187;DHT22;18686;53.084;8.872;2022-07-23T01:11:36;13.80;99.90
32187;DHT22;18686;53.084;8.872;2022-07-23T01:14:11;13.80;99.90
32187;DHT22;18686;53.084;8.872;2022-07-23T01:16:40;13.80;99.90
32187;DHT22;18686;53.084;8.872;2022-07-23T01:19:11;13.80;99.90
32187;DHT22;18686;53.084;8.872;2022-07-23T01:21:41;13.80;99.90
32187;DHT22;18686;53.084;8.872;2022-07-23T01:24:12;13.70;99.90
32187;DHT22;18686;53.084;8.872;2022-07-23T01:26:49;13.70;99.90
32187;DHT22;18686;53.084;8.872;2022-07-23T01:29:18;13.60;99.90
32187;DHT22;18686;53.084;8.872;2022-07-23T01:37:45;13.60;99.90
32187;DHT22;18686;53.084;8.872;2022-07-23T01:40:16;13.50;99.90
32187;DHT22;18686;53.084;8.872;2022-07-23T01:42:46;13.50;99.90
32187;DHT22;18686;53.084;8.872;2022-07-23T01:45:16;13.50;99.90
32187;DHT22;18686;53.084;8.872;2022-07-23T01:47:48;13.50;99.90
32187;DHT22;18686;53.084;8.872;2022-07-23T01:50:17;13.60;99.90
32187;DHT22;18686;53.084;8.872;2022-07-23T01:53:03;13.60;99.90
32187;DHT22;18686;53.084;8.872;2022-07-23T01:55:36;13.70;99.90
32187;DHT22;18686;53.084;8.872;2022-07-23T01:58:05;13.80;99.90
32187;DHT22;18686;53.084;8.872;2022-07-23T02:00:33;13.90;99.90
32187;DHT22;18686;53.084;8.872;2022-07-23T02:03:04;13.90;99.90
32187;DHT22;18686;53.084;8.872;2022-07-23T02:05:36;14.00;99.90
32187;DHT22;18686;53.084;8.872;2022-07-23T02:08:04;14.00;99.90
32187;DHT22;18686;53.084;8.872;2022-07-23T02:10:37;14.10;99.90
32187;DHT22;18686;53.084;8.872;2022-07-23T02:13:05;14.10;99.90
32187;DHT22;18686;53.084;8.872;2022-07-23T02:15:34;14.20;99.90
32187;DHT22;18686;53.084;8.872;2022-07-23T02:18:03;14.20;99.90
32187;DHT22;18686;53.084;8.872;2022-07-23T02:20:31;14.30;99.90
32187;DHT22;18686;53.084;8.872;2022-07-23T02:23:00;14.30;99.90
32187;DHT22;18686;53.084;8.872;2022-07-23T02:25:29;14.30;99.90
32187;DHT22;18686;53.084;8.872;2022-07-23T02:28:02;14.40;99.90
32187;DHT22;18686;53.084;8.872;2022-07-23T02:30:30;14.40;99.90
32187;DHT22;18686;53.084;8.872;2022-07-23T02:33:00;14.40;99.90
32187;DHT22;18686;53.084;8.872;2022-07-23T02:35:28;14.50;99.90
32187;DHT22;18686;53.084;8.872;2022-07-23T02:37:59;14.50;99.90
32187;DHT22;18686;53.084;8.872;2022-07-23T02:40:29;14.50;99.90
32187;DHT22;18686;53.084;8.872;2022-07-23T02:42:57;14.50;99.90
32187;DHT22;18686;53.084;8.872;2022-07-23T02:45:27;14.60;99.90
32187;DHT22;18686;53.084;8.872;2022-07-23T02:47:56;14.60;99.90
32187;DHT22;18686;53.084;8.872;2022-07-23T02:50:25;14.60;99.90
32187;DHT22;18686;53.084;8.872;2022-07-23T02:52:56;14.60;99.90
32187;DHT22;18686;53.084;8.872;2022-07-23T02:55:24;14.70;99.90
32187;DHT22;18686;53.084;8.872;2022-07-23T02:57:53;14.70;99.90
32187;DHT22;18686;53.084;8.872;2022-07-23T03:00:23;14.70;99.90
32187;DHT22;18686;53.084;8.872;2022-07-23T03:02:53;14.70;99.90
32187;DHT22;18686;53.084;8.872;2022-07-23T03:05:21;14.70;99.90
32187;DHT22;18686;53.084;8.872;2022-07-23T03:07:50;14.70;99.90
32187;DHT22;18686;53.084;8.872;2022-07-23T03:10:19;14.70;99.90
32187;DHT22;18686;53.084;8.872;2022-07-23T03:12:48;14.70;99.90
32187;DHT22;18686;53.084;8.872;2022-07-23T03:15:17;14.70;99.90
32187;DHT22;18686;53.084;8.872;2022-07-23T03:17:45;14.70;99.90
32187;DHT22;18686;53.084;8.872;2022-07-23T03:20:15;14.70;99.90
32187;DHT22;18686;53.084;8.872;2022-07-23T03:22:43;14.70;99.90
32187;DHT22;18686;53.084;8.872;2022-07-23T03:25:11;14.70;99.90
32187;DHT22;18686;53.084;8.872;2022-07-23T03:27:39;14.70;99.90
32187;DHT22;18686;53.084;8.872;2022-07-23T03:30:09;14.70;99.90
32187;DHT22;18686;53.084;8.872;2022-07-23T03:32:38;14.70;99.90
32187;DHT22;18686;53.084;8.872;2022-07-23T03:35:07;14.60;99.90
32187;DHT22;18686;53.084;8.872;2022-07-23T03:37:45;14.60;99.90
32187;DHT22;18686;53.084;8.872;2022-07-23T03:40:13;14.50;99.90
32187;DHT22;18686;53.084;8.872;2022-07-23T03:42:42;14.50;99.90
32187;DHT22;18686;53.084;8.872;2022-07-23T03:45:10;14.40;99.90
32187;DHT22;18686;53.084;8.872;2022-07-23T03:47:38;14.40;99.90
32187;DHT22;18686;53.084;8.872;2022-07-23T03:50:07;14.30;99.90
32187;DHT22;18686;53.084;8.872;2022-07-23T03:52:36;14.30;99.90
32187;DHT22;18686;53.084;8.872;2022-07-23T03:55:06;14.20;99.90
32187;DHT22;18686;53.084;8.872;2022-07-23T03:57:35;14.20;99.90
32187;DHT22;18686;53.084;8.872;2022-07-23T04:00:04;14.10;99.90
32187;DHT22;18686;53.084;8.872;2022-07-23T04:02:40;14.00;99.90
32187;DHT22;18686;53.084;8.872;2022-07-23T04:05:10;14.00;99.90
32187;DHT22;18686;53.084;8.872;2022-07-23T04:07:41;13.90;99.90
32187;DHT22;18686;53.084;8.872;2022-07-23T04:10:10;13.80;99.90
32187;DHT22;18686;53.084;8.872;2022-07-23T04:12:39;13.80;99.90
32187;DHT22;18686;53.084;8.872;2022-07-23T04:15:08;13.70;99.90
32187;DHT22;18686;53.084;8.872;2022-07-23T04:17:36;13.70;99.90
32187;DHT22;18686;53.084;8.872;2022-07-23T04:20:06;13.70;99.90
32187;DHT22;18686;53.084;8.872;2022-07-23T04:22:42;13.60;99.90
32187;DHT22;18686;53.084;8.872;2022-07-23T04:25:11;13.60;99.90
32187;DHT22;18686;53.084;8.872;2022-07-23T04:27:40;13.60;99.90
32187;DHT22;18686;53.084;8.872;2022-07-23T04:30:09;13.60;99.90
32187;DHT22;18686;53.084;8.872;2022-07-23T04:32:37;13.60;99.90
32187;DHT22;18686;53.084;8.872;2022-07-23T04:35:15;13.50;99.90
32187;DHT22;18686;53.084;8.872;2022-07-23T04:37:44;13.50;99.90
32187;DHT22;18686;53.084;8.872;2022-07-23T04:40:13;13.50;99.90
32187;DHT22;18686;53.084;8.872;2022-07-23T04:42:42;13.50;99.90
32187;DHT22;18686;53.084;8.872;2022-07-23T04:45:10;13.50;99.90
32187;DHT22;18686;53.084;8.872;2022-07-23T04:47:40;13.50;99.90
32187;DHT22;18686;53.084;8.872;2022-07-23T04:50:09;13.60;99.90
32187;DHT22;18686;53.084;8.872;2022-07-23T04:52:39;13.60;99.90
32187;DHT22;18686;53.084;8.872;2022-07-23T04:55:08;13.60;99.90
32187;DHT22;18686;53.084;8.872;2022-07-23T04:57:38;13.60;99.90
32187;DHT22;18686;53.084;8.872;2022-07-23T05:00:07;13.60;99.90
32187;DHT22;18686;53.084;8.872;2022-07-23T05:02:36;13.70;99.90
32187;DHT22;18686;53.084;8.872;2022-07-23T05:05:05;13.70;99.90
32187;DHT22;18686;53.084;8.872;2022-07-23T05:07:33;13.80;99.90
32187;DHT22;18686;53.084;8.872;2022-07-23T05:10:02;13.90;99.90
32187;DHT22;18686;53.084;8.872;2022-07-23T05:12:30;14.00;99.90
32187;DHT22;18686;53.084;8.872;2022-07-23T05:15:01;14.10;99.90
32187;DHT22;18686;53.084;8.872;2022-07-23T05:17:29;14.30;99.90
32187;DHT22;18686;53.084;8.872;2022-07-23T05:19:58;14.40;99.90
32187;DHT22;18686;53.084;8.872;2022-07-23T05:22:28;14.50;99.90
32187;DHT22;18686;53.084;8.872;2022-07-23T05:24:57;14.50;99.90
32187;DHT22;18686;53.084;8.872;2022-07-23T05:27:25;14.60;99.90
32187;DHT22;18686;53.084;8.872;2022-07-23T05:29:55;14.70;99.90
32187;DHT22;18686;53.084;8.872;2022-07-23T05:32:24;14.80;99.90
32187;DHT22;18686;53.084;8.872;2022-07-23T05:35:05;15.00;99.90
32187;DHT22;18686;53.084;8.872;2022-07-23T05:37:37;15.10;99.90
32187;DHT22;18686;53.084;8.872;2022-07-23T05:40:08;15.10;99.90
32187;DHT22;18686;53.084;8.872;2022-07-23T05:42:38;15.30;99.90
32187;DHT22;18686;53.084;8.872;2022-07-23T05:45:07;15.40;99.90
32187;DHT22;18686;53.084;8.872;2022-07-23T05:47:42;15.50;99.90
32187;DHT22;18686;53.084;8.872;2022-07-23T05:50:12;15.70;99.90
32187;DHT22;18686;53.084;8.872;2022-07-23T05:52:44;16.00;99.90
32187;DHT22;18686;53.084;8.872;2022-07-23T05:55:31;16.20;99.90
32187;DHT22;18686;53.084;8.872;2022-07-23T05:57:59;16.40;99.90
32187;DHT22;18686;53.084;8.872;2022-07-23T06:00:29;16.50;99.90
32187;DHT22;18686;53.084;8.872;2022-07-23T06:02:59;16.60;99.90
32187;DHT22;18686;53.084;8.872;2022-07-23T06:05:29;16.80;99.90
32187;DHT22;18686;53.084;8.872;2022-07-23T06:07:57;17.00;99.90
32187;DHT22;18686;53.084;8.872;2022-07-23T06:10:27;17.30;99.90
32187;DHT22;18686;53.084;8.872;2022-07-23T06:12:55;17.70;99.90
32187;DHT22;18686;53.084;8.872;2022-07-23T06:15:28;18.20;99.90
32187;DHT22;18686;53.084;8.872;2022-07-23T06:17:59;18.50;99.90
32187;DHT22;18686;53.084;8.872;2022-07-23T06:20:27;18.80;99.90
32187;DHT22;18686;53.084;8.872;2022-07-23T06:22:57;19.10;99.90
32187;DHT22;18686;53.084;8.872;2022-07-23T06:25:25;19.40;99.90
32187;DHT22;18686;53.084;8.872;2022-07-23T06:27:53;19.70;98.20
32187;DHT22;18686;53.084;8.872;2022-07-23T06:30:22;19.90;97.00
32187;DHT22;18686;53.084;8.872;2022-07-23T06:32:51;20.10;94.20
32187;DHT22;18686;53.084;8.872;2022-07-23T06:35:20;20.30;92.90
32187;DHT22;18686;53.084;8.872;2022-07-23T06:37:48;20.40;92.50
32187;DHT22;18686;53.084;8.872;2022-07-23T06:40:16;20.40;92.50
32187;DHT22;18686;53.084;8.872;2022-07-23T06:42:45;20.60;91.60
32187;DHT22;18686;53.084;8.872;2022-07-23T06:45:21;20.60;90.70
32187;DHT22;18686;53.084;8.872;2022-07-23T06:47:49;20.50;90.50
32187;DHT22;18686;53.084;8.872;2022-07-23T06:50:19;20.50;90.00
32187;DHT22;18686;53.084;8.872;2022-07-23T06:52:48;20.70;87.80
32187;DHT22;18686;53.084;8.872;2022-07-23T06:55:17;20.90;87.10
32187;DHT22;18686;53.084;8.872;2022-07-23T06:57:45;21.20;85.30
32187;DHT22;18686;53.084;8.872;2022-07-23T07:00:13;21.60;84.30
32187;DHT22;18686;53.084;8.872;2022-07-23T07:02:42;22.10;80.70
32187;DHT22;18686;53.084;8.872;2022-07-23T07:05:10;22.60;77.40
32187;DHT22;18686;53.084;8.872;2022-07-23T07:07:40;23.10;72.40
32187;DHT22;18686;53.084;8.872;2022-07-23T07:10:13;23.70;68.10
32187;DHT22;18686;53.084;8.872;2022-07-23T07:12:43;24.50;65.50
32187;DHT22;18686;53.084;8.872;2022-07-23T07:15:11;25.50;60.80
32187;DHT22;18686;53.084;8.872;2022-07-23T07:17:39;26.30;57.40
32187;DHT22;18686;53.084;8.872;2022-07-23T07:20:10;26.70;53.20
32187;DHT22;18686;53.084;8.872;2022-07-23T07:22:39;26.50;51.30
32187;DHT22;18686;53.084;8.872;2022-07-23T07:25:08;26.70;51.50
32187;DHT22;18686;53.084;8.872;2022-07-23T07:27:36;27.70;49.30
32187;DHT22;18686;53.084;8.872;2022-07-23T07:30:07;28.80;47.40
32187;DHT22;18686;53.084;8.872;2022-07-23T07:32:35;29.70;46.20
32187;DHT22;18686;53.084;8.872;2022-07-23T07:35:24;31.60;44.30
32187;DHT22;18686;53.084;8.872;2022-07-23T07:37:54;34.00;40.70
32187;DHT22;18686;53.084;8.872;2022-07-23T07:40:22;35.80;37.60
32187;DHT22;18686;53.084;8.872;2022-07-23T07:42:56;37.70;35.40
32187;DHT22;18686;53.084;8.872;2022-07-23T07:45:25;38.50;32.50
32187;DHT22;18686;53.084;8.872;2022-07-23T07:47:53;37.60;31.90
32187;DHT22;18686;53.084;8.872;2022-07-23T07:50:22;36.00;32.10
32187;DHT22;18686;53.084;8.872;2022-07-23T07:52:50;34.40;33.20
32187;DHT22;18686;53.084;8.872;2022-07-23T07:55:19;32.90;35.10
32187;DHT22;18686;53.084;8.872;2022-07-23T07:57:48;31.40;36.10
32187;DHT22;18686;53.084;8.872;2022-07-23T08:00:16;30.40;38.20
32187;DHT22;18686;53.084;8.872;2022-07-23T08:02:48;29.40;39.60
32187;DHT22;18686;53.084;8.872;2022-07-23T08:05:19;29.00;41.10
32187;DHT22;18686;53.084;8.872;2022-07-23T08:07:54;29.20;41.30
32187;DHT22;18686;53.084;8.872;2022-07-23T08:10:25;29.50;41.00
32187;DHT22;18686;53.084;8.872;2022-07-23T08:12:55;30.00;39.70
32187;DHT22;18686;53.084;8.872;2022-07-23T08:15:25;29.80;39.30
32187;DHT22;18686;53.084;8.872;2022-07-23T08:17:54;29.30;39.90
32187;DHT22;18686;53.084;8.872;2022-07-23T08:20:23;28.50;40.90
32187;DHT22;18686;53.084;8.872;2022-07-23T08:22:54;27.90;42.30
32187;DHT22;18686;53.084;8.872;2022-07-23T08:25:25;27.20;43.50
32187;DHT22;18686;53.084;8.872;2022-07-23T08:27:54;26.60;44.80
32187;DHT22;18686;53.084;8.872;2022-07-23T08:30:23;26.10;45.80
32187;DHT22;18686;53.084;8.872;2022-07-23T08:32:53;25.70;46.70
32187;DHT22;18686;53.084;8.872;2022-07-23T08:35:23;25.30;47.60
32187;DHT22;18686;53.084;8.872;2022-07-23T08:37:52;25.20;48.20
32187;DHT22;18686;53.084;8.872;2022-07-23T08:40:20;25.00;48.60
32187;DHT22;18686;53.084;8.872;2022-07-23T08:42:51;24.80;49.20
32187;DHT22;18686;53.084;8.872;2022-07-23T08:45:21;24.80;49.90
32187;DHT22;18686;53.084;8.872;2022-07-23T08:47:50;25.00;50.30
32187;DHT22;18686;53.084;8.872;2022-07-23T08:50:20;25.00;49.20
32187;DHT22;18686;53.084;8.872;2022-07-23T08:52:49;25.00;49.80
32187;DHT22;18686;53.084;8.872;2022-07-23T08:55:18;25.20;49.00
32187;DHT22;18686;53.084;8.872;2022-07-23T08:57:50;25.40;48.10
32187;DHT22;18686;53.084;8.872;2022-07-23T09:00:19;25.40;47.80
32187;DHT22;18686;53.084;8.872;2022-07-23T09:02:49;25.30;48.10
32187;DHT22;18686;53.084;8.872;2022-07-23T09:05:19;25.20;48.20
32187;DHT22;18686;53.084;8.872;2022-07-23T09:08:07;25.20;48.00
32187;DHT22;18686;53.084;8.872;2022-07-23T09:10:48;25.00;48.30
32187;DHT22;18686;53.084;8.872;2022-07-23T09:13:39;24.70;48.50
32187;DHT22;18686;53.084;8.872;2022-07-23T09:19:07;24.40;49.30
32187;DHT22;18686;53.084;8.872;2022-07-23T09:21:37;24.20;50.60
32187;DHT22;18686;53.084;8.872;2022-07-23T09:24:07;24.10;51.30
32187;DHT22;18686;53.084;8.872;2022-07-23T09:26:36;24.40;51.30
32187;DHT22;18686;53.084;8.872;2022-07-23T09:29:09;25.10;50.50
32187;DHT22;18686;53.084;8.872;2022-07-23T09:31:49;25.90;48.90
32187;DHT22;18686;53.084;8.872;2022-07-23T09:34:20;26.50;47.10
32187;DHT22;18686;53.084;8.872;2022-07-23T09:36:50;26.70;45.70
32187;DHT22;18686;53.084;8.872;2022-07-23T09:39:26;26.80;45.40
32187;DHT22;18686;53.084;8.872;2022-07-23T09:41:55;27.10;45.10
32187;DHT22;18686;53.084;8.872;2022-07-23T09:44:24;27.70;44.60
32187;DHT22;18686;53.084;8.872;2022-07-23T09:46:58;28.50;43.70
32187;DHT22;18686;53.084;8.872;2022-07-23T09:49:27;29.30;42.50
32187;DHT22;18686;53.084;8.872;2022-07-23T09:51:58;30.10;41.40
32187;DHT22;18686;53.084;8.872;2022-07-23T09:54:32;31.10;40.00
32187;DHT22;18686;53.084;8.872;2022-07-23T09:57:32;32.60;38.40
32187;DHT22;18686;53.084;8.872;2022-07-23T10:00:05;34.00;36.80
32187;DHT22;18686;53.084;8.872;2022-07-23T10:02:35;35.60;34.50
32187;DHT22;18686;53.084;8.872;2022-07-23T10:05:23;36.90;33.30
32187;DHT22;18686;53.084;8.872;2022-07-23T10:08:24;37.90;32.10
32187;DHT22;18686;53.084;8.872;2022-07-23T10:11:05;39.00;30.20
32187;DHT22;18686;53.084;8.872;2022-07-23T10:13:58;40.60;30.00
32187;DHT22;18686;53.084;8.872;2022-07-23T10:16:39;42.40;28.90
32187;DHT22;18686;53.084;8.872;2022-07-23T10:19:07;42.90;27.70
32187;DHT22;18686;53.084;8.872;2022-07-23T10:21:40;42.60;27.40
32187;DHT22;18686;53.084;8.872;2022-07-23T10:24:11;41.60;27.60
32187;DHT22;18686;53.084;8.872;2022-07-23T10:26:45;40.40;27.90
32187;DHT22;18686;53.084;8.872;2022-07-23T10:29:24;39.40;28.10
32187;DHT22;18686;53.084;8.872;2022-07-23T10:32:06;37.70;28.70
32187;DHT22;18686;53.084;8.872;2022-07-23T10:34:43;36.40;29.60
32187;DHT22;18686;53.084;8.872;2022-07-23T10:37:36;35.50;30.30
32187;DHT22;18686;53.084;8.872;2022-07-23T10:40:10;35.80;30.60
32187;DHT22;18686;53.084;8.872;2022-07-23T10:42:39;35.90;30.50
32187;DHT22;18686;53.084;8.872;2022-07-23T10:45:25;35.60;30.60
32187;DHT22;18686;53.084;8.872;2022-07-23T10:48:10;34.90;30.90
32187;DHT22;18686;53.084;8.872;2022-07-23T10:50:40;33.90;31.60
32187;DHT22;18686;53.084;8.872;2022-07-23T10:53:14;32.90;32.50
32187;DHT22;18686;53.084;8.872;2022-07-23T10:55:47;32.20;33.10
32187;DHT22;18686;53.084;8.872;2022-07-23T10:58:46;32.70;33.80
32187;DHT22;18686;53.084;8.872;2022-07-23T11:01:38;34.60;32.60
32187;DHT22;18686;53.084;8.872;2022-07-23T11:04:08;36.30;30.50
32187;DHT22;18686;53.084;8.872;2022-07-23T11:07:06;37.50;29.90
32187;DHT22;18686;53.084;8.872;2022-07-23T11:09:39;39.20;28.60
32187;DHT22;18686;53.084;8.872;2022-07-23T11:15:08;42.90;26.90
32187;DHT22;18686;53.084;8.872;2022-07-23T11:17:38;44.90;25.60
32187;DHT22;18686;53.084;8.872;2022-07-23T11:20:16;46.50;25.10
32187;DHT22;18686;53.084;8.872;2022-07-23T11:22:51;47.80;24.60
32187;DHT22;18686;53.084;8.872;2022-07-23T11:25:31;47.30;24.00
32187;DHT22;18686;53.084;8.872;2022-07-23T11:28:13;45.40;24.20
32187;DHT22;18686;53.084;8.872;2022-07-23T11:30:43;44.70;25.00
32187;DHT22;18686;53.084;8.872;2022-07-23T11:33:22;45.60;24.70
32187;DHT22;18686;53.084;8.872;2022-07-23T11:36:01;46.90;24.50
32187;DHT22;18686;53.084;8.872;2022-07-23T11:38:31;46.80;24.20
32187;DHT22;18686;53.084;8.872;2022-07-23T11:41:03;47.50;24.00
32187;DHT22;18686;53.084;8.872;2022-07-23T11:43:31;47.60;23.50
32187;DHT22;18686;53.084;8.872;2022-07-23T11:46:00;48.00;23.60
32187;DHT22;18686;53.084;8.872;2022-07-23T11:48:30;48.40;23.60
32187;DHT22;18686;53.084;8.872;2022-07-23T11:51:08;48.40;23.40
32187;DHT22;18686;53.084;8.872;2022-07-23T11:53:36;47.60;23.30
32187;DHT22;18686;53.084;8.872;2022-07-23T11:56:05;45.90;23.50
32187;DHT22;18686;53.084;8.872;2022-07-23T11:58:34;43.70;24.50
32187;DHT22;18686;53.084;8.872;2022-07-23T12:03:51;38.90;25.80
32187;DHT22;18686;53.084;8.872;2022-07-23T12:06:21;37.40;27.50
32187;DHT22;18686;53.084;8.872;2022-07-23T12:08:49;37.40;28.10
32187;DHT22;18686;53.084;8.872;2022-07-23T12:11:17;37.40;27.60
32187;DHT22;18686;53.084;8.872;2022-07-23T12:13:56;36.90;27.70
32187;DHT22;18686;53.084;8.872;2022-07-23T12:16:24;35.80;28.10
32187;DHT22;18686;53.084;8.872;2022-07-23T12:18:53;34.70;29.30
32187;DHT22;18686;53.084;8.872;2022-07-23T12:21:24;33.40;30.40
32187;DHT22;18686;53.084;8.872;2022-07-23T12:26:27;31.40;33.10
32187;DHT22;18686;53.084;8.872;2022-07-23T12:28:55;31.80;34.30
32187;DHT22;18686;53.084;8.872;2022-07-23T12:31:26;32.50;33.30
32187;DHT22;18686;53.084;8.872;2022-07-23T12:33:54;32.70;32.70
32187;DHT22;18686;53.084;8.872;2022-07-23T12:36:38;32.90;32.20
32187;DHT22;18686;53.084;8.872;2022-07-23T12:39:08;33.90;32.00
32187;DHT22;18686;53.084;8.872;2022-07-23T12:41:52;35.60;30.20
32187;DHT22;18686;53.084;8.872;2022-07-23T12:44:35;37.20;29.30
32187;DHT22;18686;53.084;8.872;2022-07-23T12:47:21;37.40;28.70
32187;DHT22;18686;53.084;8.872;2022-07-23T12:49:50;37.90;28.50
32187;DHT22;18686;53.084;8.872;2022-07-23T12:52:21;37.50;28.40
32187;DHT22;18686;53.084;8.872;2022-07-23T12:54:49;36.40;28.80
32187;DHT22;18686;53.084;8.872;2022-07-23T12:57:17;35.60;29.50
32187;DHT22;18686;53.084;8.872;2022-07-23T12:59:45;36.10;29.30
32187;DHT22;18686;53.084;8.872;2022-07-23T13:02:14;36.60;28.90
32187;DHT22;18686;53.084;8.872;2022-07-23T13:04:42;36.30;28.80
32187;DHT22;18686;53.084;8.872;2022-07-23T13:07:10;35.20;29.40
32187;DHT22;18686;53.084;8.872;2022-07-23T13:09:40;34.10;29.90
32187;DHT22;18686;53.084;8.872;2022-07-23T13:12:09;33.20;31.30
32187;DHT22;18686;53.084;8.872;2022-07-23T13:14:38;32.90;31.70
32187;DHT22;18686;53.084;8.872;2022-07-23T13:17:07;33.10;31.30
32187;DHT22;18686;53.084;8.872;2022-07-23T13:19:35;32.80;31.40
32187;DHT22;18686;53.084;8.872;2022-07-23T13:22:04;32.60;30.70
32187;DHT22;18686;53.084;8.872;2022-07-23T13:24:36;32.90;31.20
32187;DHT22;18686;53.084;8.872;2022-07-23T13:27:06;33.80;30.70
32187;DHT22;18686;53.084;8.872;2022-07-23T13:29:38;34.60;29.80
32187;DHT22;18686;53.084;8.872;2022-07-23T13:32:06;34.90;29.30
32187;DHT22;18686;53.084;8.872;2022-07-23T13:34:39;35.00;29.40
32187;DHT22;18686;53.084;8.872;2022-07-23T13:37:27;35.20;29.50
32187;DHT22;18686;53.084;8.872;2022-07-23T13:39:56;35.60;28.80
32187;DHT22;18686;53.084;8.872;2022-07-23T13:42:25;35.80;28.70
32187;DHT22;18686;53.084;8.872;2022-07-23T13:44:55;35.90;28.60
32187;DHT22;18686;53.084;8.872;2022-07-23T13:47:23;35.90;28.60
32187;DHT22;18686;53.084;8.872;2022-07-23T13:49:51;35.80;28.50
32187;DHT22;18686;53.084;8.872;2022-07-23T13:52:19;35.60;28.50
32187;DHT22;18686;53.084;8.872;2022-07-23T13:54:48;35.30;28.80
32187;DHT22;18686;53.084;8.872;2022-07-23T13:57:16;34.40;29.00
32187;DHT22;18686;53.084;8.872;2022-07-23T13:59:45;33.60;29.60
32187;DHT22;18686;53.084;8.872;2022-07-23T14:02:16;32.60;30.30
32187;DHT22;18686;53.084;8.872;2022-07-23T14:04:47;31.70;31.50
32187;DHT22;18686;53.084;8.872;2022-07-23T14:07:15;31.10;32.90
32187;DHT22;18686;53.084;8.872;2022-07-23T14:09:43;30.80;32.50
32187;DHT22;18686;53.084;8.872;2022-07-23T14:12:12;30.40;32.60
32187;DHT22;18686;53.084;8.872;2022-07-23T14:14:45;29.70;33.20
32187;DHT22;18686;53.084;8.872;2022-07-23T14:17:13;29.20;34.40
32187;DHT22;18686;53.084;8.872;2022-07-23T14:19:42;28.90;34.80
32187;DHT22;18686;53.084;8.872;2022-07-23T14:22:10;28.70;35.60
32187;DHT22;18686;53.084;8.872;2022-07-23T14:24:39;28.30;36.80
32187;DHT22;18686;53.084;8.872;2022-07-23T14:27:07;28.10;37.80
32187;DHT22;18686;53.084;8.872;2022-07-23T14:29:36;27.80;38.40
32187;DHT22;18686;53.084;8.872;2022-07-23T14:32:06;27.80;39.40
32187;DHT22;18686;53.084;8.872;2022-07-23T14:34:35;27.80;38.90
32187;DHT22;18686;53.084;8.872;2022-07-23T14:37:04;27.80;38.60
32187;DHT22;18686;53.084;8.872;2022-07-23T14:39:33;27.90;38.70
32187;DHT22;18686;53.084;8.872;2022-07-23T14:42:01;27.80;39.10
32187;DHT22;18686;53.084;8.872;2022-07-23T14:44:30;27.80;39.20
32187;DHT22;18686;53.084;8.872;2022-07-23T14:46:58;27.60;38.90
32187;DHT22;18686;53.084;8.872;2022-07-23T14:49:28;27.50;39.00
32187;DHT22;18686;53.084;8.872;2022-07-23T14:51:56;27.50;39.00
32187;DHT22;18686;53.084;8.872;2022-07-23T14:54:26;27.40;39.80
32187;DHT22;18686;53.084;8.872;2022-07-23T14:56:56;27.30;40.50
32187;DHT22;18686;53.084;8.872;2022-07-23T14:59:25;27.20;40.60
32187;DHT22;18686;53.084;8.872;2022-07-23T15:01:53;27.00;41.60
32187;DHT22;18686;53.084;8.872;2022-07-23T15:04:23;26.80;41.70
32187;DHT22;18686;53.084;8.872;2022-07-23T15:07:07;26.80;42.00
32187;DHT22;18686;53.084;8.872;2022-07-23T15:09:36;26.60;42.00
32187;DHT22;18686;53.084;8.872;2022-07-23T15:12:04;26.40;42.30
32187;DHT22;18686;53.084;8.872;2022-07-23T15:14:38;26.10;42.00
32187;DHT22;18686;53.084;8.872;2022-07-23T15:17:07;25.90;42.30
32187;DHT22;18686;53.084;8.872;2022-07-23T15:19:36;25.60;43.10
32187;DHT22;18686;53.084;8.872;2022-07-23T15:22:04;25.40;43.40
32187;DHT22;18686;53.084;8.872;2022-07-23T15:24:35;25.30;43.80
32187;DHT22;18686;53.084;8.872;2022-07-23T15:27:03;25.20;43.60
32187;DHT22;18686;53.084;8.872;2022-07-23T15:29:32;25.20;43.60
32187;DHT22;18686;53.084;8.872;2022-07-23T15:32:01;25.00;43.80
32187;DHT22;18686;53.084;8.872;2022-07-23T15:34:30;24.80;44.10
32187;DHT22;18686;53.084;8.872;2022-07-23T15:37:00;24.60;44.70
32187;DHT22;18686;53.084;8.872;2022-07-23T15:39:38;24.50;45.10
32187;DHT22;18686;53.084;8.872;2022-07-23T15:42:07;24.40;45.80
32187;DHT22;18686;53.084;8.872;2022-07-23T15:44:40;24.30;46.00
32187;DHT22;18686;53.084;8.872;2022-07-23T15:47:11;24.10;46.10
32187;DHT22;18686;53.084;8.872;2022-07-23T15:49:40;23.90;46.40
32187;DHT22;18686;53.084;8.872;2022-07-23T15:52:08;23.70;46.80
32187;DHT22;18686;53.084;8.872;2022-07-23T15:54:39;23.70;47.70
32187;DHT22;18686;53.084;8.872;2022-07-23T15:57:07;23.60;47.80
32187;DHT22;18686;53.084;8.872;2022-07-23T15:59:35;23.40;48.00
32187;DHT22;18686;53.084;8.872;2022-07-23T16:02:04;23.30;48.50
32187;DHT22;18686;53.084;8.872;2022-07-23T16:04:34;23.30;49.40
32187;DHT22;18686;53.084;8.872;2022-07-23T16:07:02;23.30;49.70
32187;DHT22;18686;53.084;8.872;2022-07-23T16:09:31;23.20;49.60
32187;DHT22;18686;53.084;8.872;2022-07-23T16:12:00;23.10;49.80